Time;durP1;ratioP1;P1;durP2;ratioP2;P2;SDS_P1;SDS_P2;PMS_P1;PMS_P2;Temp;Humidity;BMP_temperature;BMP_pressure;BME280_temperature;BME280_humidity;BME280_pressure;Samples;Min_cycle;Max_cycle;Signal;HPM_P1;HPM_P2
2022/11/28 00:00:11;;;;;;;6.68;3.83;;;;;;;;;;6119865;23;20026;-61
2022/11/28 00:02:39;;;;;;;13.00;4.32;;;;;;;;;;6119934;23;20022;-65
2022/11/28 00:05:06;;;;;;;11.95;4.78;;;;;;;;;;6120908;23;20026;-66
2022/11/28 00:07:40;;;;;;;13.57;4.63;;;;;;;;;;6119572;23;20096;-65
2022/11/28 00:10:08;;;;;;;12.63;5.18;;;;;;;;;;6119530;23;20848;-66
2022/11/28 00:12:41;;;;;;;11.32;5.25;;;;;;;;;;6118211;23;20022;-66
2022/11/28 00:15:10;;;;;;;9.73;4.75;;;;;;;;;;6119167;23;20423;-66
2022/11/28 00:17:44;;;;;;;10.13;4.72;;;;;;;;;;6117247;23;20097;-65
2022/11/28 00:20:11;;;;;;;12.13;4.82;;;;;;;;;;6119602;23;20029;-66
2022/11/28 00:22:39;;;;;;;9.25;4.95;;;;;;;;;;6118516;23;20029;-56
2022/11/28 00:25:12;;;;;;;15.18;5.28;;;;;;;;;;6119098;23;20030;-57
2022/11/28 00:27:39;;;;;;;14.38;5.00;;;;;;;;;;6119244;23;20101;-58
2022/11/28 00:30:13;;;;;;;12.32;4.53;;;;;;;;;;6117325;23;20538;-59
2022/11/28 00:32:40;;;;;;;11.73;5.63;;;;;;;;;;6118477;23;20053;-58
2022/11/28 00:35:21;;;;;;;14.35;5.20;;;;;;;;;;6119247;23;20022;-56
2022/11/28 00:37:48;;;;;;;9.95;4.53;;;;;;;;;;6118514;23;20061;-61
2022/11/28 00:40:22;;;;;;;12.40;4.90;;;;;;;;;;6119359;23;20026;-65
2022/11/28 00:42:49;;;;;;;15.82;5.40;;;;;;;;;;6118629;23;20061;-61
2022/11/28 00:45:17;;;;;;;10.48;5.20;;;;;;;;;;6117282;23;20022;-61
2022/11/28 00:47:50;;;;;;;11.25;4.85;;;;;;;;;;6119885;23;20022;-61
2022/11/28 00:50:17;;;;;;;11.23;5.50;;;;;;;;;;6119170;23;20022;-61
2022/11/28 00:52:45;;;;;;;14.15;5.05;;;;;;;;;;6092763;23;20022;-61
2022/11/28 00:55:18;;;;;;;11.32;5.28;;;;;;;;;;6118283;23;20477;-61
2022/11/28 00:57:46;;;;;;;14.88;5.40;;;;;;;;;;6119141;23;20108;-50
2022/11/28 01:00:19;;;;;;;17.02;5.35;;;;;;;;;;6118308;23;20030;-53
2022/11/28 01:02:47;;;;;;;12.63;4.53;;;;;;;;;;6119022;23;20362;-53
2022/11/28 01:05:14;;;;;;;13.65;5.10;;;;;;;;;;6120297;23;20029;-49
2022/11/28 01:07:48;;;;;;;16.15;5.35;;;;;;;;;;6119046;23;20116;-51
2022/11/28 01:10:16;;;;;;;14.20;5.50;;;;;;;;;;6118494;23;20467;-52
2022/11/28 01:12:43;;;;;;;12.18;5.13;;;;;;;;;;6117384;23;20026;-53
2022/11/28 01:15:17;;;;;;;15.55;5.63;;;;;;;;;;6118222;23;20028;-52
2022/11/28 01:17:51;;;;;;;16.98;6.30;;;;;;;;;;6118965;23;20022;-57
2022/11/28 01:20:25;;;;;;;13.70;5.07;;;;;;;;;;6093195;23;20032;-58
2022/11/28 01:22:59;;;;;;;11.63;5.15;;;;;;;;;;6117866;23;20018;-56
2022/11/28 01:25:26;;;;;;;14.63;5.47;;;;;;;;;;6118854;23;20374;-56
2022/11/28 01:27:53;;;;;;;11.48;5.22;;;;;;;;;;6118899;23;20028;-58
2022/11/28 01:30:27;;;;;;;12.35;5.30;;;;;;;;;;6118601;23;20341;-55
2022/11/28 01:33:07;;;;;;;12.48;5.25;;;;;;;;;;6118584;23;20095;-58
2022/11/28 01:35:41;;;;;;;13.50;6.10;;;;;;;;;;6089417;23;20037;-60
2022/11/28 01:38:08;;;;;;;16.30;5.68;;;;;;;;;;6089483;23;20018;-61
2022/11/28 01:40:36;;;;;;;8.55;5.03;;;;;;;;;;6089467;23;20105;-61
2022/11/28 01:43:09;;;;;;;19.13;5.18;;;;;;;;;;6090654;23;20025;-61
2022/11/28 01:45:38;;;;;;;18.35;5.45;;;;;;;;;;6088751;23;20022;-61
2022/11/28 01:48:14;;;;;;;9.20;5.28;;;;;;;;;;6088527;23;20029;-60
2022/11/28 01:50:41;;;;;;;13.43;5.50;;;;;;;;;;6089139;23;20110;-63
2022/11/28 01:53:15;;;;;;;16.33;6.00;;;;;;;;;;6088429;23;20097;-64
2022/11/28 01:55:47;;;;;;;14.43;5.65;;;;;;;;;;6088189;23;20026;-51
2022/11/28 01:58:21;;;;;;;13.88;5.95;;;;;;;;;;6089437;23;20416;-53
2022/11/28 02:00:48;;;;;;;13.85;5.05;;;;;;;;;;6086967;23;20467;-55
2022/11/28 02:03:25;;;;;;;13.07;6.03;;;;;;;;;;6089220;23;20477;-53
2022/11/28 02:05:53;;;;;;;14.90;5.05;;;;;;;;;;6063635;23;20405;-56
2022/11/28 02:08:27;;;;;;;15.63;6.53;;;;;;;;;;6089332;23;20033;-52
2022/11/28 02:11:06;;;;;;;13.90;5.40;;;;;;;;;;6089899;23;20036;-53
2022/11/28 02:13:52;;;;;;;13.85;5.93;;;;;;;;;;6088074;23;20041;-57
2022/11/28 02:16:44;;;;;;;16.02;5.78;;;;;;;;;;6089705;23;20056;-46
2022/11/28 02:19:24;;;;;;;14.05;6.18;;;;;;;;;;6088186;23;20037;-48
2022/11/28 02:21:55;;;;;;;13.02;5.93;;;;;;;;;;6089570;23;20041;-49
2022/11/28 02:24:37;;;;;;;17.77;6.57;;;;;;;;;;6088625;23;20423;-47
2022/11/28 02:27:10;;;;;;;10.68;5.35;;;;;;;;;;6088792;23;20026;-49
2022/11/28 02:29:53;;;;;;;15.07;5.35;;;;;;;;;;6087413;23;20031;-45
2022/11/28 02:32:41;;;;;;;12.43;5.10;;;;;;;;;;6088287;23;20022;-65
2022/11/28 02:35:21;;;;;;;14.68;5.50;;;;;;;;;;6116109;23;20028;-56
2022/11/28 02:38:06;;;;;;;16.10;5.47;;;;;;;;;;6117912;23;20025;-57
2022/11/28 02:40:45;;;;;;;16.17;5.95;;;;;;;;;;6118593;23;20032;-56
2022/11/28 02:43:35;;;;;;;16.63;5.35;;;;;;;;;;6118907;23;20026;-55
2022/11/28 02:46:14;;;;;;;11.52;5.20;;;;;;;;;;6117769;23;20101;-57
2022/11/28 02:48:51;;;;;;;10.80;5.20;;;;;;;;;;6116621;23;20429;-55
2022/11/28 02:51:33;;;;;;;11.70;5.40;;;;;;;;;;6116304;23;20391;-64
2022/11/28 02:54:09;;;;;;;11.90;4.80;;;;;;;;;;6117420;23;20101;-52
2022/11/28 02:56:36;;;;;;;13.80;5.15;;;;;;;;;;6117641;23;20030;-51
2022/11/28 02:59:04;;;;;;;12.05;5.45;;;;;;;;;;6119873;23;20032;-52
2022/11/28 03:01:38;;;;;;;14.65;4.43;;;;;;;;;;6119407;23;20829;-52
2022/11/28 03:04:05;;;;;;;15.43;5.15;;;;;;;;;;6119122;23;20077;-53
2022/11/28 03:06:48;;;;;;;8.25;4.75;;;;;;;;;;6118051;23;20026;-51
2022/11/28 03:09:40;;;;;;;12.85;5.40;;;;;;;;;;6120065;23;20025;-51
2022/11/28 03:12:23;;;;;;;13.98;4.78;;;;;;;;;;6120407;23;20109;-57
2022/11/28 03:14:50;;;;;;;8.15;3.30;;;;;;;;;;6119668;23;20100;-50
2022/11/28 03:17:44;;;;;;;13.60;4.90;;;;;;;;;;6119983;23;20028;-55
2022/11/28 03:20:22;;;;;;;8.27;4.18;;;;;;;;;;6119778;23;20026;-50
2022/11/28 03:22:59;;;;;;;13.18;4.95;;;;;;;;;;6121238;23;20030;-52
2022/11/28 03:25:35;;;;;;;10.05;4.60;;;;;;;;;;6121175;23;20102;-50
2022/11/28 03:28:28;;;;;;;11.57;5.05;;;;;;;;;;6120820;23;20057;-51
2022/11/28 03:31:02;;;;;;;8.20;4.25;;;;;;;;;;6119253;23;20359;-57
2022/11/28 03:33:43;;;;;;;14.40;6.10;;;;;;;;;;6120732;23;20029;-54
2022/11/28 03:36:19;;;;;;;13.73;5.10;;;;;;;;;;6119589;23;20025;-51
2022/11/28 03:38:59;;;;;;;13.10;5.00;;;;;;;;;;6119946;23;20025;-53
2022/11/28 03:41:49;;;;;;;9.15;4.68;;;;;;;;;;6117931;23;20471;-52
2022/11/28 03:44:28;;;;;;;7.65;3.65;;;;;;;;;;6109101;23;20055;-52
2022/11/28 03:46:57;;;;;;;13.23;4.80;;;;;;;;;;6119406;23;20022;-51
2022/11/28 03:49:33;;;;;;;12.85;4.78;;;;;;;;;;6119012;23;20026;-56
2022/11/28 03:52:00;;;;;;;10.15;4.95;;;;;;;;;;6117378;23;20108;-53
2022/11/28 03:54:30;;;;;;;9.05;4.05;;;;;;;;;;6120027;23;20113;-48
2022/11/28 03:57:15;;;;;;;12.00;4.80;;;;;;;;;;6120321;23;20026;-50
2022/11/28 03:59:49;;;;;;;11.02;4.00;;;;;;;;;;6120027;23;20535;-51
2022/11/28 04:02:26;;;;;;;11.23;4.53;;;;;;;;;;6119709;23;20028;-54
2022/11/28 04:05:12;;;;;;;8.45;3.60;;;;;;;;;;6116929;23;20025;-55
2022/11/28 04:07:47;;;;;;;11.35;4.07;;;;;;;;;;6119195;23;20546;-56
2022/11/28 04:10:17;;;;;;;7.88;3.03;;;;;;;;;;6120512;23;20032;-60
2022/11/28 04:12:53;;;;;;;18.48;4.55;;;;;;;;;;6119381;23;20018;-60
2022/11/28 04:15:26;;;;;;;6.55;2.88;;;;;;;;;;6117990;23;20543;-59
2022/11/28 04:18:06;;;;;;;10.57;4.03;;;;;;;;;;6116209;23;20519;-60
2022/11/28 04:20:36;;;;;;;8.65;3.78;;;;;;;;;;6118754;23;20134;-60
2022/11/28 04:23:13;;;;;;;5.43;3.13;;;;;;;;;;6121169;23;20018;-59
2022/11/28 04:25:44;;;;;;;8.65;4.07;;;;;;;;;;6117872;23;20757;-62
2022/11/28 04:28:19;;;;;;;8.33;2.73;;;;;;;;;;6119161;23;20033;-54
2022/11/28 04:30:55;;;;;;;4.72;2.50;;;;;;;;;;6117999;23;20509;-66
2022/11/28 04:33:37;;;;;;;10.52;4.30;;;;;;;;;;6119935;23;20427;-65
2022/11/28 04:36:11;;;;;;;10.90;3.90;;;;;;;;;;6119408;23;20022;-65
2022/11/28 04:38:54;;;;;;;9.63;3.88;;;;;;;;;;6119407;23;20025;-66
2022/11/28 04:41:26;;;;;;;6.72;3.88;;;;;;;;;;6118034;23;20036;-66
2022/11/28 04:44:02;;;;;;;7.13;3.33;;;;;;;;;;6118649;23;20025;-66
2022/11/28 04:46:32;;;;;;;11.55;4.22;;;;;;;;;;6118246;23;20454;-66
2022/11/28 04:49:05;;;;;;;11.60;4.05;;;;;;;;;;6118315;23;20026;-51
2022/11/28 04:51:42;;;;;;;12.05;4.63;;;;;;;;;;6120281;23;20022;-54
2022/11/28 04:54:26;;;;;;;9.68;3.72;;;;;;;;;;6118313;23;20026;-55
2022/11/28 04:56:57;;;;;;;8.73;4.55;;;;;;;;;;6118653;23;20554;-52
2022/11/28 04:59:31;;;;;;;10.38;3.53;;;;;;;;;;6118335;23;20109;-53
2022/11/28 05:02:08;;;;;;;7.93;3.92;;;;;;;;;;6117949;23;20427;-54
2022/11/28 05:04:43;;;;;;;7.05;3.72;;;;;;;;;;6117959;23;20022;-57
2022/11/28 05:07:10;;;;;;;9.50;3.97;;;;;;;;;;6119768;23;20026;-49
2022/11/28 05:09:44;;;;;;;7.10;3.50;;;;;;;;;;6119347;23;20029;-57
2022/11/28 05:12:11;;;;;;;7.22;3.30;;;;;;;;;;6119523;23;20022;-58
2022/11/28 05:14:45;;;;;;;5.22;3.78;;;;;;;;;;6117794;23;20018;-55
2022/11/28 05:17:13;;;;;;;7.40;3.22;;;;;;;;;;6117088;23;20117;-56
2022/11/28 05:19:40;;;;;;;4.95;2.80;;;;;;;;;;6116123;23;20264;-56
2022/11/28 05:22:14;;;;;;;9.57;3.80;;;;;;;;;;6118773;23;20036;-57
2022/11/28 05:24:41;;;;;;;6.55;3.35;;;;;;;;;;6117531;23;20022;-60
2022/11/28 05:27:15;;;;;;;14.52;4.32;;;;;;;;;;6117735;23;20033;-61
2022/11/28 05:29:45;;;;;;;11.15;3.90;;;;;;;;;;6116714;23;20037;-61
2022/11/28 05:32:18;;;;;;;9.20;2.88;;;;;;;;;;6117335;23;20032;-60
2022/11/28 05:34:59;;;;;;;9.57;3.67;;;;;;;;;;6117516;23;20026;-60
2022/11/28 05:37:26;;;;;;;7.47;2.55;;;;;;;;;;6119486;23;20363;-60
2022/11/28 05:40:00;;;;;;;6.30;3.72;;;;;;;;;;6118147;23;20096;-60
2022/11/28 05:42:31;;;;;;;6.13;4.30;;;;;;;;;;6117408;23;20105;-46
2022/11/28 05:44:58;;;;;;;7.07;2.95;;;;;;;;;;6118231;23;20029;-53
2022/11/28 05:47:33;;;;;;;8.32;3.75;;;;;;;;;;6115536;23;20029;-64
2022/11/28 05:50:00;;;;;;;10.93;4.90;;;;;;;;;;6113660;23;20105;-64
2022/11/28 05:52:33;;;;;;;7.45;3.83;;;;;;;;;;6114472;23;20101;-64
2022/11/28 05:55:00;;;;;;;8.52;4.13;;;;;;;;;;6113941;23;20387;-63
2022/11/28 05:57:35;;;;;;;8.93;3.30;;;;;;;;;;6116600;23;20065;-64
2022/11/28 06:00:02;;;;;;;5.57;2.88;;;;;;;;;;6117121;23;20101;-64
2022/11/28 06:02:29;;;;;;;6.07;3.40;;;;;;;;;;6118753;23;20545;-53
2022/11/28 06:05:03;;;;;;;6.15;3.30;;;;;;;;;;6093218;23;20022;-63
2022/11/28 06:07:50;;;;;;;11.30;3.88;;;;;;;;;;6119880;23;20026;-63
2022/11/28 06:10:24;;;;;;;9.00;4.20;;;;;;;;;;6118244;23;20121;-64
2022/11/28 06:12:52;;;;;;;8.90;4.20;;;;;;;;;;6119171;23;20097;-64
2022/11/28 06:15:19;;;;;;;6.35;2.72;;;;;;;;;;6092831;23;20105;-62
2022/11/28 06:17:52;;;;;;;9.77;4.22;;;;;;;;;;6118868;23;20022;-64
2022/11/28 06:20:19;;;;;;;8.55;3.65;;;;;;;;;;6117674;23;20061;-48
2022/11/28 06:22:53;;;;;;;7.45;3.75;;;;;;;;;;6120258;23;20057;-60
2022/11/28 06:25:21;;;;;;;6.53;3.78;;;;;;;;;;6119141;23;20102;-54
2022/11/28 06:27:48;;;;;;;6.10;3.92;;;;;;;;;;6118854;23;20053;-51
2022/11/28 06:30:22;;;;;;;6.10;3.08;;;;;;;;;;6119110;23;20026;-56
2022/11/28 06:32:49;;;;;;;7.30;3.25;;;;;;;;;;6120994;23;20487;-54
2022/11/28 06:35:30;;;;;;;10.40;3.67;;;;;;;;;;6118454;23;20036;-54
2022/11/28 06:38:04;;;;;;;6.65;3.20;;;;;;;;;;6121387;23;20379;-52
2022/11/28 06:40:40;;;;;;;9.23;3.60;;;;;;;;;;6120477;23;20061;-54
2022/11/28 06:43:07;;;;;;;5.30;3.83;;;;;;;;;;6120965;23;20112;-60
2022/11/28 06:45:35;;;;;;;7.63;3.38;;;;;;;;;;6121549;23;20022;-61
2022/11/28 06:48:08;;;;;;;5.70;3.47;;;;;;;;;;6121821;23;20050;-61
2022/11/28 06:50:35;;;;;;;16.75;5.22;;;;;;;;;;6119825;23;20028;-60
2022/11/28 06:53:09;;;;;;;8.40;4.22;;;;;;;;;;6122286;23;20026;-60
2022/11/28 06:55:37;;;;;;;4.97;2.83;;;;;;;;;;6119641;23;20101;-60
2022/11/28 06:58:04;;;;;;;10.88;3.85;;;;;;;;;;6122284;23;20026;-58
2022/11/28 07:00:38;;;;;;;6.70;3.40;;;;;;;;;;6120631;23;20044;-66
2022/11/28 07:03:05;;;;;;;;;;;;;;;;;;6120847;23;20101;-66
2022/11/28 07:05:39;;;;;;;8.48;4.00;;;;;;;;;;6096975;23;19956;-66
2022/11/28 07:08:06;;;;;;;;;;;;;;;;;;6121898;23;20487;-66
2022/11/28 07:10:33;;;;;;;7.47;3.33;;;;;;;;;;6120627;23;19917;-66
2022/11/28 07:13:08;;;;;;;7.68;3.33;;;;;;;;;;6121977;23;20041;-66
2022/11/28 07:15:35;;;;;;;8.05;2.90;;;;;;;;;;6120755;23;20030;-66
2022/11/28 07:18:09;;;;;;;9.88;3.53;;;;;;;;;;6120904;23;20022;-60
2022/11/28 07:20:36;;;;;;;5.88;3.00;;;;;;;;;;6119543;23;20026;-66
2022/11/28 07:23:10;;;;;;;7.97;2.95;;;;;;;;;;6121075;23;20018;-59
2022/11/28 07:25:37;;;;;;;;;;;;;;;;;;6120658;23;20563;-59
2022/11/28 07:28:11;;;;;;;6.63;3.50;;;;;;;;;;6119129;23;19974;-60
2022/11/28 07:30:38;;;;;;;11.88;3.65;;;;;;;;;;6120729;23;20116;-60
2022/11/28 07:33:05;;;;;;;5.43;3.13;;;;;;;;;;6120229;23;20030;-60
2022/11/28 07:35:46;;;;;;;3.95;2.95;;;;;;;;;;6118510;23;20045;-59
2022/11/28 07:38:13;;;;;;;5.93;3.17;;;;;;;;;;6120015;23;20026;-45
2022/11/28 07:40:47;;;;;;;8.02;3.75;;;;;;;;;;6120170;23;20025;-51
2022/11/28 07:43:14;;;;;;;7.15;3.80;;;;;;;;;;6121085;23;20097;-55
2022/11/28 07:45:48;;;;;;;9.10;3.85;;;;;;;;;;6121277;23;20029;-50
2022/11/28 07:48:27;;;;;;;8.00;3.40;;;;;;;;;;6120165;23;20609;-52
2022/11/28 07:51:04;;;;;;;7.95;4.00;;;;;;;;;;6119854;23;20026;-51
2022/11/28 07:53:37;;;;;;;10.25;3.92;;;;;;;;;;6121029;23;20436;-50
2022/11/28 07:56:14;;;;;;;5.38;3.38;;;;;;;;;;6121159;23;20117;-50
2022/11/28 07:58:42;;;;;;;8.13;3.45;;;;;;;;;;6120464;23;20033;-63
2022/11/28 08:01:14;;;;;;;5.85;3.50;;;;;;;;;;6121325;23;20104;-60
2022/11/28 08:03:47;;;;;;;;;;;;;;;;;;6120010;23;20409;-61
2022/11/28 08:06:15;;;;;;;6.57;2.92;;;;;;;;;;6119455;23;20000;-60
2022/11/28 08:08:49;;;;;;;6.88;3.33;;;;;;;;;;6120240;23;20356;-60
2022/11/28 08:11:17;;;;;;;8.98;3.10;;;;;;;;;;6118208;23;20026;-60
2022/11/28 08:13:51;;;;;;;6.43;2.70;;;;;;;;;;6121301;23;20093;-60
2022/11/28 08:16:24;;;;;;;10.63;4.40;;;;;;;;;;6118418;23;20435;-59
2022/11/28 08:19:01;;;;;;;7.60;2.67;;;;;;;;;;6119805;23;20025;-60
2022/11/28 08:21:33;;;;;;;9.70;2.90;;;;;;;;;;6119261;23;20108;-61
2022/11/28 08:24:06;;;;;;;;;;;;;;;;;;6121273;23;20114;-61
2022/11/28 08:26:34;;;;;;;3.35;1.98;;;;;;;;;;6118559;23;20414;-60
2022/11/28 08:29:02;;;;;;;8.93;3.17;;;;;;;;;;6119875;23;20029;-60
2022/11/28 08:31:37;;;;;;;9.68;2.80;;;;;;;;;;6117733;23;20763;-60
2022/11/28 08:34:11;;;;;;;3.60;2.00;;;;;;;;;;6120438;23;20374;-58
2022/11/28 08:36:52;;;;;;;8.07;2.63;;;;;;;;;;6119387;23;20108;-63
2022/11/28 08:39:19;;;;;;;7.20;2.80;;;;;;;;;;6120453;23;20025;-57
2022/11/28 08:41:58;;;;;;;8.80;3.05;;;;;;;;;;6119402;23;20026;-58
2022/11/28 08:44:26;;;;;;;6.70;2.65;;;;;;;;;;6120422;23;20026;-55
2022/11/28 08:47:00;;;;;;;8.50;2.80;;;;;;;;;;6119179;23;20021;-57
2022/11/28 08:49:27;;;;;;;6.22;2.42;;;;;;;;;;6119355;23;20018;-58
2022/11/28 08:51:54;;;;;;;4.13;2.42;;;;;;;;;;6119574;23;20029;-58
2022/11/28 08:54:28;;;;;;;6.07;2.80;;;;;;;;;;6118545;23;20057;-57
2022/11/28 08:56:55;;;;;;;3.45;2.35;;;;;;;;;;6119315;23;20032;-60
2022/11/28 08:59:29;;;;;;;3.97;2.67;;;;;;;;;;6120697;23;20026;-60
2022/11/28 09:01:56;;;;;;;5.75;2.90;;;;;;;;;;6118891;23;20026;-61
2022/11/28 09:04:24;;;;;;;3.30;1.80;;;;;;;;;;6119487;23;20026;-61
2022/11/28 09:06:57;;;;;;;8.18;2.80;;;;;;;;;;6119199;23;20028;-60
2022/11/28 09:09:24;;;;;;;10.30;2.88;;;;;;;;;;6119205;23;20495;-61
2022/11/28 09:11:58;;;;;;;5.95;2.13;;;;;;;;;;6119088;23;20061;-52
2022/11/28 09:14:32;;;;;;;4.70;2.92;;;;;;;;;;6119703;23;20029;-47
2022/11/28 09:16:59;;;;;;;4.30;2.40;;;;;;;;;;6118600;23;20149;-56
2022/11/28 09:19:33;;;;;;;4.28;2.50;;;;;;;;;;6119882;23;20029;-58
2022/11/28 09:22:01;;;;;;;5.43;2.60;;;;;;;;;;6119707;23;20543;-59
2022/11/28 09:24:28;;;;;;;6.03;2.63;;;;;;;;;;6118714;23;20104;-57
2022/11/28 09:27:02;;;;;;;4.47;2.35;;;;;;;;;;6117639;23;20022;-57
2022/11/28 09:29:29;;;;;;;8.48;2.67;;;;;;;;;;6120350;23;20082;-54
2022/11/28 09:32:02;;;;;;;6.40;2.88;;;;;;;;;;6119617;23;20459;-67
2022/11/28 09:34:36;;;;;;;5.30;2.65;;;;;;;;;;6119082;23;20032;-47
2022/11/28 09:37:17;;;;;;;5.38;2.60;;;;;;;;;;6119649;23;20510;-47
2022/11/28 09:39:45;;;;;;;7.82;2.80;;;;;;;;;;6119891;23;20102;-46
2022/11/28 09:42:42;;;;;;;4.57;2.28;;;;;;;;;;6118990;23;20029;-48
2022/11/28 09:45:12;;;;;;;4.85;2.63;;;;;;;;;;6120100;23;20104;-45
2022/11/28 09:47:51;;;;;;;6.28;2.90;;;;;;;;;;6119317;23;20022;-45
2022/11/28 09:50:20;;;;;;;7.47;2.97;;;;;;;;;;6120051;23;20460;-60
2022/11/28 09:53:18;;;;;;;6.32;3.08;;;;;;;;;;6119814;23;20029;-66
2022/11/28 09:55:49;;;;;;;6.70;2.80;;;;;;;;;;6118145;23;20025;-67
2022/11/28 09:58:23;;;;;;;4.78;3.13;;;;;;;;;;6119121;23;20420;-67
2022/11/28 10:01:00;;;;;;;5.63;2.50;;;;;;;;;;6118528;23;20460;-66
2022/11/28 10:03:48;;;;;;;6.65;3.25;;;;;;;;;;6119327;23;20141;-67
2022/11/28 10:06:25;;;;;;;3.83;2.47;;;;;;;;;;6118599;23;20022;-67
2022/11/28 10:08:58;;;;;;;7.97;3.22;;;;;;;;;;6120872;23;20026;-59
2022/11/28 10:11:28;;;;;;;5.53;3.00;;;;;;;;;;6119676;23;20022;-67
2022/11/28 10:14:09;;;;;;;5.28;2.70;;;;;;;;;;6121286;23;20064;-50
2022/11/28 10:16:38;;;;;;;7.60;2.85;;;;;;;;;;6120396;23;20570;-49
2022/11/28 10:19:17;;;;;;;9.30;3.03;;;;;;;;;;6120600;23;20029;-50
2022/11/28 10:22:06;;;;;;;7.43;3.15;;;;;;;;;;6118756;23;20033;-47
2022/11/28 10:24:44;;;;;;;7.90;3.13;;;;;;;;;;6120931;23;20128;-49
2022/11/28 10:27:13;;;;;;;9.07;3.00;;;;;;;;;;6121070;23;20028;-49
2022/11/28 10:29:47;;;;;;;5.85;3.22;;;;;;;;;;6120710;23;20498;-52
2022/11/28 10:32:35;;;;;;;7.05;2.97;;;;;;;;;;6120401;23;20704;-60
2022/11/28 10:35:06;;;;;;;4.88;2.45;;;;;;;;;;6120399;23;20045;-59
2022/11/28 10:37:47;;;;;;;7.95;3.10;;;;;;;;;;6120756;23;20105;-60
2022/11/28 10:40:22;;;;;;;7.88;2.72;;;;;;;;;;6121403;23;20025;-60
2022/11/28 10:43:00;;;;;;;5.85;2.90;;;;;;;;;;6120762;23;20026;-59
2022/11/28 10:45:30;;;;;;;7.55;3.42;;;;;;;;;;6119930;23;20041;-59
2022/11/28 10:48:13;;;;;;;4.63;2.90;;;;;;;;;;6120533;23;20032;-55
2022/11/28 10:51:19;;;;;;;6.30;2.83;;;;;;;;;;6120738;23;20029;-57
2022/11/28 10:54:12;;;;;;;7.03;3.03;;;;;;;;;;6120446;23;20041;-56
2022/11/28 10:56:50;;;;;;;5.38;2.85;;;;;;;;;;6121176;23;20022;-55
2022/11/28 10:59:24;;;;;;;8.80;3.13;;;;;;;;;;6120659;23;20072;-57
2022/11/28 11:01:52;;;;;;;6.60;3.05;;;;;;;;;;6120783;23;20570;-57
2022/11/28 11:04:22;;;;;;;5.93;2.50;;;;;;;;;;6120136;23;20038;-54
2022/11/28 11:07:09;;;;;;;5.10;2.58;;;;;;;;;;6120427;23;20033;-64
2022/11/28 11:09:50;;;;;;;6.63;2.70;;;;;;;;;;6121421;23;20101;-57
2022/11/28 11:12:24;;;;;;;4.22;2.95;;;;;;;;;;6120939;23;20102;-58
2022/11/28 11:14:57;;;;;;;5.07;2.72;;;;;;;;;;6120382;23;20033;-57
2022/11/28 11:17:32;;;;;;;2.60;2.00;;;;;;;;;;6119741;23;20032;-57
2022/11/28 11:20:25;;;;;;;4.80;2.92;;;;;;;;;;6121022;23;20024;-55
2022/11/28 11:23:00;;;;;;;6.95;2.80;;;;;;;;;;6119125;23;20433;-58
2022/11/28 11:25:34;;;;;;;3.83;2.72;;;;;;;;;;6121217;23;20022;-60
2022/11/28 11:28:03;;;;;;;4.97;2.40;;;;;;;;;;6121706;23;20583;-49
2022/11/28 11:30:37;;;;;;;4.05;2.30;;;;;;;;;;6119443;23;20460;-66
2022/11/28 11:33:15;;;;;;;4.13;2.60;;;;;;;;;;6120319;23;20026;-66
2022/11/28 11:35:56;;;;;;;4.53;2.75;;;;;;;;;;6120252;23;20048;-66
2022/11/28 11:38:30;;;;;;;3.00;2.00;;;;;;;;;;6120809;23;20480;-66
2022/11/28 11:41:24;;;;;;;5.90;2.33;;;;;;;;;;6120992;23;20117;-67
2022/11/28 11:43:51;;;;;;;4.57;2.20;;;;;;;;;;6119989;23;20026;-67
2022/11/28 11:46:25;;;;;;;5.28;2.50;;;;;;;;;;6120121;23;20133;-56
2022/11/28 11:48:53;;;;;;;4.35;2.42;;;;;;;;;;6120413;23;20484;-60
2022/11/28 11:51:27;;;;;;;3.80;2.25;;;;;;;;;;6119327;23;20026;-60
2022/11/28 11:54:11;;;;;;;3.75;2.70;;;;;;;;;;6120315;23;20028;-60
2022/11/28 11:56:40;;;;;;;5.25;2.50;;;;;;;;;;6120256;23;20067;-60
2022/11/28 11:59:15;;;;;;;4.13;2.38;;;;;;;;;;6120956;23;20360;-61
2022/11/28 12:01:44;;;;;;;6.40;2.58;;;;;;;;;;6118153;23;20104;-60
2022/11/28 12:04:21;;;;;;;5.63;1.77;;;;;;;;;;6120664;23;20534;-56
2022/11/28 12:07:17;;;;;;;4.13;2.47;;;;;;;;;;6120075;23;20041;-56
2022/11/28 12:09:53;;;;;;;4.30;2.58;;;;;;;;;;6119310;23;20022;-57
2022/11/28 12:12:28;;;;;;;5.82;2.38;;;;;;;;;;6119860;23;20033;-57
2022/11/28 12:15:01;;;;;;;5.95;2.17;;;;;;;;;;6119612;23;20028;-55
2022/11/28 12:17:38;;;;;;;4.05;2.10;;;;;;;;;;6118551;23;20021;-55
2022/11/28 12:20:31;;;;;;;5.68;2.40;;;;;;;;;;6120347;23;20053;-54
2022/11/28 12:23:24;;;;;;;4.20;2.38;;;;;;;;;;6119123;23;20053;-59
2022/11/28 12:26:08;;;;;;;4.15;2.22;;;;;;;;;;6119671;23;20609;-50
2022/11/28 12:28:53;;;;;;;3.38;2.10;;;;;;;;;;6120456;23;20032;-53
2022/11/28 12:31:28;;;;;;;6.60;2.38;;;;;;;;;;6118379;23;20053;-53
2022/11/28 12:34:18;;;;;;;6.07;2.63;;;;;;;;;;6120297;23;20025;-53
2022/11/28 12:37:05;;;;;;;4.50;2.20;;;;;;;;;;6070992;23;20033;-53
2022/11/28 12:39:33;;;;;;;4.60;2.40;;;;;;;;;;6119372;23;20479;-53
2022/11/28 12:42:14;;;;;;;5.80;2.28;;;;;;;;;;6118811;23;20025;-47
2022/11/28 12:45:04;;;;;;;3.60;1.70;;;;;;;;;;6120274;23;20096;-60
2022/11/28 12:47:47;;;;;;;5.72;2.50;;;;;;;;;;6071786;23;20212;-60
2022/11/28 12:50:24;;;;;;;4.65;2.53;;;;;;;;;;6119608;23;20109;-60
2022/11/28 12:53:16;;;;;;;6.85;2.50;;;;;;;;;;6119407;23;20026;-60
2022/11/28 12:56:09;;;;;;;4.53;2.00;;;;;;;;;;6119225;23;20026;-60
2022/11/28 12:59:05;;;;;;;5.35;2.45;;;;;;;;;;6118721;23;20029;-60
2022/11/28 13:01:39;;;;;;;4.57;2.08;;;;;;;;;;6119968;23;20018;-55
2022/11/28 13:04:25;;;;;;;3.20;2.15;;;;;;;;;;6120092;23;20041;-60
2022/11/28 13:07:04;;;;;;;3.65;2.13;;;;;;;;;;6119239;23;20028;-60
2022/11/28 13:09:46;;;;;;;5.72;2.35;;;;;;;;;;6120165;23;20018;-60
2022/11/28 13:12:32;;;;;;;6.22;2.80;;;;;;;;;;6119561;23;20464;-60
2022/11/28 13:15:14;;;;;;;3.70;1.83;;;;;;;;;;6119979;23;20100;-60
2022/11/28 13:17:50;;;;;;;5.57;2.97;;;;;;;;;;6119667;23;20334;-60
2022/11/28 13:20:38;;;;;;;8.13;2.80;;;;;;;;;;6118812;23;20029;-60
2022/11/28 13:23:28;;;;;;;4.63;2.65;;;;;;;;;;6118247;23;20025;-45
2022/11/28 13:26:05;;;;;;;4.43;2.38;;;;;;;;;;6119423;23;20137;-47
2022/11/28 13:28:45;;;;;;;4.13;2.33;;;;;;;;;;6118482;23;20105;-48
2022/11/28 13:31:38;;;;;;;4.35;2.10;;;;;;;;;;6119161;23;20032;-49
2022/11/28 13:34:12;;;;;;;3.42;2.20;;;;;;;;;;6120085;23;20033;-45
2022/11/28 13:36:52;;;;;;;3.88;2.10;;;;;;;;;;6089723;23;20022;-47
2022/11/28 13:39:56;;;;;;;3.08;2.13;;;;;;;;;;6091070;23;20029;-51
2022/11/28 13:42:34;;;;;;;10.65;3.50;;;;;;;;;;6088922;23;20026;-66
2022/11/28 13:45:48;;;;;;;3.30;2.35;;;;;;;;;;6088893;23;20026;-66
2022/11/28 13:48:52;;;;;;;4.30;2.63;;;;;;;;;;6090327;23;20026;-66
2022/11/28 13:51:46;;;;;;;3.97;2.50;;;;;;;;;;5972477;24;20823;-65
2022/11/28 13:54:14;;;;;;;;;;;;;;;;;;6090480;23;20022;-65
2022/11/28 13:57:08;;;;;;;3.42;2.22;;;;;;;;;;6089093;23;19928;-66
2022/11/28 13:59:36;;;;;;;3.47;2.00;;;;;;;;;;6021953;23;20581;-55
2022/11/28 14:02:20;;;;;;;3.80;2.22;;;;;;;;;;6089908;23;20418;-60
2022/11/28 14:04:48;;;;;;;4.32;2.45;;;;;;;;;;6089441;23;20072;-60
2022/11/28 14:07:32;;;;;;;3.25;2.25;;;;;;;;;;6089840;23;20058;-59
2022/11/28 14:10:17;;;;;;;5.15;2.33;;;;;;;;;;6091123;23;20037;-60
2022/11/28 14:12:56;;;;;;;2.80;2.10;;;;;;;;;;6088933;23;20022;-60
2022/11/28 14:15:59;;;;;;;3.47;2.33;;;;;;;;;;6090501;23;20467;-60
2022/11/28 14:18:37;;;;;;;3.58;2.17;;;;;;;;;;6090675;23;20029;-64
2022/11/28 14:21:33;;;;;;;4.75;2.38;;;;;;;;;;6087889;23;20026;-64
2022/11/28 14:24:23;;;;;;;3.45;1.95;;;;;;;;;;6088972;23;20445;-64
2022/11/28 14:26:57;;;;;;;4.63;2.72;;;;;;;;;;6089462;23;20109;-64
2022/11/28 14:29:39;;;;;;;3.42;2.20;;;;;;;;;;6089822;23;20535;-64
2022/11/28 14:32:06;;;;;;;3.63;2.10;;;;;;;;;;6089361;23;20101;-64
2022/11/28 14:35:11;;;;;;;3.70;2.20;;;;;;;;;;6096472;23;20022;-64
2022/11/28 14:37:51;;;;;;;4.55;2.35;;;;;;;;;;6119495;23;20101;-60
2022/11/28 14:40:44;;;;;;;5.75;2.30;;;;;;;;;;6118129;23;20577;-65
2022/11/28 14:43:24;;;;;;;4.30;2.40;;;;;;;;;;6118912;23;20026;-65
2022/11/28 14:46:18;;;;;;;4.43;2.35;;;;;;;;;;6119962;23;20018;-66
2022/11/28 14:48:57;;;;;;;4.68;2.30;;;;;;;;;;6118804;23;20053;-65
2022/11/28 14:51:43;;;;;;;4.47;2.08;;;;;;;;;;6119802;23;20100;-66
2022/11/28 14:54:29;;;;;;;4.13;2.33;;;;;;;;;;6122284;23;20028;-56
2022/11/28 14:57:11;;;;;;;6.25;2.25;;;;;;;;;;6119506;23;20026;-52
2022/11/28 14:59:39;;;;;;;5.57;3.03;;;;;;;;;;6120622;23;20356;-60
2022/11/28 15:02:13;;;;;;;4.93;2.30;;;;;;;;;;6120508;23;20061;-59
2022/11/28 15:04:59;;;;;;;3.25;2.28;;;;;;;;;;6120769;23;20422;-60
2022/11/28 15:07:41;;;;;;;6.97;2.30;;;;;;;;;;6120534;23;20022;-59
2022/11/28 15:10:19;;;;;;;3.03;1.67;;;;;;;;;;6121088;23;20018;-59
2022/11/28 15:13:25;;;;;;;3.45;2.25;;;;;;;;;;6119553;23;20049;-59
2022/11/28 15:15:55;;;;;;;;;;;;;;;;;;6056228;23;20108;-59
2022/11/28 15:18:30;;;;;;;3.83;1.75;;;;;;;;;;6094883;23;19921;-60
2022/11/28 15:21:00;;;;;;;3.55;2.47;;;;;;;;;;6121094;23;20022;-60
2022/11/28 15:23:37;;;;;;;2.38;1.95;;;;;;;;;;6120442;23;20543;-59
2022/11/28 15:26:21;;;;;;;1.85;1.38;;;;;;;;;;6120620;23;20026;-59
2022/11/28 15:28:48;;;;;;;2.58;1.58;;;;;;;;;;6121206;23;20100;-60
2022/11/28 15:31:22;;;;;;;4.13;2.00;;;;;;;;;;6120842;23;20089;-59